Time;durP1;ratioP1;P1;durP2;ratioP2;P2;SDS_P1;SDS_P2;PMS_P1;PMS_P2;Temp;Humidity;BMP_temperature;BMP_pressure;BME280_temperature;BME280_humidity;BME280_pressure;Samples;Min_cycle;Max_cycle;Signal;HPM_P1;HPM_P2
2022/05/19 00:02:00;;;;;;;14.25;7.93;;;;;;;19.28;69.89;101666.50;6245203;23;20012;-81
2022/05/19 00:04:26;;;;;;;9.68;5.82;;;;;;;19.25;69.67;101662.19;6245245;23;20004;-81
2022/05/19 00:06:52;;;;;;;18.52;9.95;;;;;;;19.17;72.85;101651.09;6244280;23;20135;-82
2022/05/19 00:09:18;;;;;;;14.80;8.20;;;;;;;19.15;70.60;101647.66;6245557;23;20047;-81
2022/05/19 00:11:45;;;;;;;13.50;7.50;;;;;;;19.13;71.81;101654.78;6244611;23;20486;-81
2022/05/19 00:14:11;;;;;;;13.95;7.47;;;;;;;19.09;72.17;101647.91;6243887;23;20448;-82
2022/05/19 00:16:36;;;;;;;10.05;6.15;;;;;;;19.09;70.61;101648.75;6245494;23;20004;-81
2022/05/19 00:19:02;;;;;;;9.90;5.70;;;;;;;19.10;69.46;101645.22;6245703;23;20008;-81
2022/05/19 00:21:27;;;;;;;8.83;5.17;;;;;;;19.08;70.52;101647.03;6244692;23;20014;-81
2022/05/19 00:23:53;;;;;;;8.73;4.93;;;;;;;19.08;70.74;101638.31;6244766;23;20239;-81
2022/05/19 00:26:19;;;;;;;14.55;7.60;;;;;;;19.03;71.11;101629.75;6245355;23;20054;-82
2022/05/19 00:28:44;;;;;;;16.63;8.57;;;;;;;18.98;73.64;101629.91;6244209;23;20004;-81
2022/05/19 00:31:09;;;;;;;15.67;8.07;;;;;;;18.96;71.37;101629.13;6246305;23;20325;-81
2022/05/19 00:33:35;;;;;;;15.93;8.07;;;;;;;18.93;71.39;101632.72;6247696;23;20089;-82
2022/05/19 00:36:15;;;;;;;9.13;5.37;;;;;;;18.93;70.83;101624.81;6245865;23;20086;-81
2022/05/19 00:38:41;;;;;;;15.77;7.85;;;;;;;18.92;72.18;101624.84;6247157;23;20024;-81
2022/05/19 00:41:06;;;;;;;9.40;5.63;;;;;;;18.93;71.84;101622.19;6247405;23;20011;-81
2022/05/19 00:43:35;;;;;;;7.27;4.40;;;;;;;18.91;70.56;101621.38;6246683;23;20333;-81
2022/05/19 00:46:12;;;;;;;13.18;7.00;;;;;;;18.90;71.21;101624.94;6246941;23;20061;-82
2022/05/19 00:48:46;;;;;;;10.18;5.20;;;;;;;18.88;70.88;101617.97;6245951;23;20061;-81
2022/05/19 00:51:14;;;;;;;9.57;5.07;;;;;;;18.85;71.01;101612.88;6246927;23;20016;-82
2022/05/19 00:53:46;;;;;;;7.13;4.43;;;;;;;18.82;70.69;101614.69;6246993;23;20035;-81
2022/05/19 00:56:17;;;;;;;13.70;7.38;;;;;;;18.80;72.05;101610.41;6246429;23;20000;-82
2022/05/19 00:58:49;;;;;;;9.70;5.60;;;;;;;18.79;71.51;101608.69;6247044;23;20008;-81
2022/05/19 01:01:14;;;;;;;8.95;4.50;;;;;;;18.77;71.32;101606.09;6247285;23;20010;-82
2022/05/19 01:03:49;;;;;;;5.80;3.80;;;;;;;18.76;70.59;101604.38;6246082;23;20075;-82
2022/05/19 01:06:18;;;;;;;4.93;3.40;;;;;;;18.76;70.64;101599.13;6247375;23;20004;-82
2022/05/19 01:08:55;;;;;;;7.07;4.40;;;;;;;18.74;71.16;101590.47;6246765;23;20015;-81
2022/05/19 01:11:20;;;;;;;7.45;4.03;;;;;;;18.71;70.92;101584.44;6245738;23;20000;-82
2022/05/19 01:13:46;;;;;;;5.50;3.30;;;;;;;18.68;70.56;101582.78;6246641;23;20008;-81
2022/05/19 01:16:13;;;;;;;8.67;5.03;;;;;;;18.61;73.00;101573.44;6247235;23;20318;-81
2022/05/19 01:18:39;;;;;;;6.43;4.22;;;;;;;18.60;71.32;101582.22;6245680;23;19997;-81
2022/05/19 01:21:09;;;;;;;5.82;3.70;;;;;;;18.59;71.03;101575.25;6246912;23;20012;-81
2022/05/19 01:23:56;;;;;;;5.20;3.58;;;;;;;18.57;70.71;101574.44;6246057;23;20065;-81
2022/05/19 01:26:28;;;;;;;4.25;3.10;;;;;;;18.54;71.13;101572.81;6246936;23;20325;-81
2022/05/19 01:28:55;;;;;;;3.65;3.00;;;;;;;18.52;70.99;101578.09;6246356;23;20487;-81
2022/05/19 01:31:36;;;;;;;4.18;3.10;;;;;;;18.50;71.05;101563.31;6246261;23;20015;-81
2022/05/19 01:34:04;;;;;;;3.88;2.80;;;;;;;18.47;70.30;101560.78;6246931;23;20007;-81
2022/05/19 01:36:30;;;;;;;4.97;3.28;;;;;;;18.46;70.34;101554.69;6247084;23;20004;-81
2022/05/19 01:38:59;;;;;;;5.63;3.53;;;;;;;18.43;71.17;101554.78;6245817;23;20451;-81
2022/05/19 01:41:37;;;;;;;5.13;3.70;;;;;;;18.39;70.88;101541.81;6246467;23;20452;-81
2022/05/19 01:44:21;;;;;;;6.32;3.60;;;;;;;18.37;70.43;101545.34;6246766;23;20050;-81
2022/05/19 01:46:55;;;;;;;5.97;4.00;;;;;;;18.37;71.04;101542.72;6245658;23;20007;-82
2022/05/19 01:49:27;;;;;;;13.77;6.60;;;;;;;18.35;70.90;101546.34;6246745;23;20015;-80
2022/05/19 01:52:07;;;;;;;11.07;6.07;;;;;;;18.30;71.44;101540.38;6245227;23;20009;-81
2022/05/19 01:54:48;;;;;;;10.48;5.90;;;;;;;18.29;70.86;101542.16;6246404;23;20083;-81
2022/05/19 01:57:24;;;;;;;8.27;4.90;;;;;;;18.27;71.17;101556.28;6245078;23;20094;-80
2022/05/19 02:00:03;;;;;;;7.35;4.20;;;;;;;18.24;71.30;101538.00;6245719;23;20380;-81
2022/05/19 02:02:37;;;;;;;5.75;3.60;;;;;;;18.22;71.39;101543.31;6246475;23;20043;-81
2022/05/19 02:05:22;;;;;;;3.67;3.00;;;;;;;18.16;71.73;101544.41;6246825;23;20031;-81
2022/05/19 02:07:51;;;;;;;8.13;4.43;;;;;;;18.13;71.03;101536.63;6239944;23;20007;-81
2022/05/19 02:10:26;;;;;;;7.82;4.60;;;;;;;18.13;71.03;101541.88;6246517;23;20242;-81
2022/05/19 02:12:54;;;;;;;6.40;4.10;;;;;;;18.12;71.15;101528.81;6245071;23;20004;-80
2022/05/19 02:15:24;;;;;;;5.97;3.97;;;;;;;18.13;71.09;101533.13;6246775;23;20000;-81
2022/05/19 02:17:50;;;;;;;7.53;4.40;;;;;;;18.12;71.24;101534.91;6246960;23;20007;-81
2022/05/19 02:20:23;;;;;;;11.02;6.47;;;;;;;18.10;71.87;101535.88;6245795;23;20010;-80
2022/05/19 02:22:49;;;;;;;9.73;5.20;;;;;;;18.09;71.72;101535.00;6246145;23;20083;-80
2022/05/19 02:25:23;;;;;;;6.78;4.40;;;;;;;18.08;72.80;101533.28;6246262;23;20175;-80
2022/05/19 02:27:54;;;;;;;6.20;3.88;;;;;;;18.07;71.88;101539.44;6245125;23;20000;-81
2022/05/19 02:30:29;;;;;;;4.70;3.40;;;;;;;18.07;72.03;101539.44;6246358;23;20082;-81
2022/05/19 02:32:54;;;;;;;4.30;3.25;;;;;;;18.04;71.94;101545.66;6245766;23;20425;-81
2022/05/19 02:35:21;;;;;;;4.43;3.43;;;;;;;18.06;71.63;101541.22;6245450;23;20049;-81
2022/05/19 02:37:46;;;;;;;6.97;4.25;;;;;;;18.06;71.35;101537.75;6245763;23;20004;-81
2022/05/19 02:40:15;;;;;;;5.40;3.70;;;;;;;18.07;72.04;101539.44;6246555;23;20004;-81
2022/05/19 02:42:41;;;;;;;5.28;3.70;;;;;;;18.06;71.82;101541.22;6244963;23;20028;-81
2022/05/19 02:45:07;;;;;;;6.23;3.83;;;;;;;18.06;71.61;101550.88;6246444;23;20414;-80
2022/05/19 02:47:32;;;;;;;4.95;3.50;;;;;;;18.06;71.75;101551.72;6244759;23;20003;-80
2022/05/19 02:49:57;;;;;;;5.07;3.60;;;;;;;18.08;71.45;101550.81;6244230;23;20004;-80
2022/05/19 02:52:23;;;;;;;6.73;4.40;;;;;;;18.09;71.66;101555.16;6245365;23;20091;-81
2022/05/19 02:54:48;;;;;;;5.57;3.60;;;;;;;18.09;72.16;101560.41;6244264;23;20015;-80
2022/05/19 02:57:13;;;;;;;5.23;3.47;;;;;;;18.09;71.76;101560.41;6246078;23;20053;-81
2022/05/19 02:59:39;;;;;;;4.00;3.10;;;;;;;18.11;72.01;101562.06;6245790;23;20452;-81
2022/05/19 03:02:04;;;;;;;5.07;3.03;;;;;;;18.12;71.74;101566.41;6244961;23;20501;-80
2022/05/19 03:04:29;;;;;;;4.40;2.93;;;;;;;18.16;71.86;101580.28;6246187;23;20007;-81
2022/05/19 03:06:55;;;;;;;3.87;2.90;;;;;;;18.16;73.18;101640.72;6245593;23;20080;-81
2022/05/19 03:09:21;;;;;;;14.63;8.07;;;;;;;18.09;76.11;101674.22;6244856;23;20004;-81
2022/05/19 03:11:47;;;;;;;13.88;8.30;;;;;;;18.08;76.22;101679.53;6245591;23;20079;-80
2022/05/19 03:14:12;;;;;;;18.55;10.45;;;;;;;18.06;76.17;101663.84;6245990;23;20028;-80
2022/05/19 03:16:41;;;;;;;20.73;12.97;;;;;;;18.21;75.80;101710.56;6244605;23;20004;-80
2022/05/19 03:19:09;;;;;;;19.73;12.02;;;;;;;18.29;76.01;101704.22;6245729;23;20026;-80
2022/05/19 03:21:34;;;;;;;16.08;9.35;;;;;;;18.39;74.79;101699.50;6245832;23;20027;-80
2022/05/19 03:24:00;;;;;;;14.63;8.43;;;;;;;18.43;75.53;101694.06;6244600;23;20436;-80
2022/05/19 03:26:25;;;;;;;9.47;6.10;;;;;;;18.46;73.95;101704.50;6244625;22;20477;-80
2022/05/19 03:28:51;;;;;;;7.30;4.87;;;;;;;18.52;74.24;101717.41;6245745;23;20003;-80
2022/05/19 03:31:16;;;;;;;6.80;4.68;;;;;;;18.58;73.99;101708.44;6245046;23;20054;-80
2022/05/19 03:33:41;;;;;;;6.87;4.23;;;;;;;18.61;74.11;101697.00;6245550;23;20004;-80
2022/05/19 03:36:08;;;;;;;5.75;3.88;;;;;;;18.62;73.30;101696.06;6245964;23;20023;-80
2022/05/19 03:38:34;;;;;;;3.67;3.10;;;;;;;18.62;73.63;101702.19;6244836;23;20000;-80
2022/05/19 03:40:59;;;;;;;3.03;2.73;;;;;;;18.65;73.63;101706.47;6244434;23;20487;-80
2022/05/19 03:43:24;;;;;;;2.60;2.40;;;;;;;18.66;73.46;101709.06;6245009;23;20425;-80
2022/05/19 03:45:50;;;;;;;2.43;2.23;;;;;;;18.63;73.09;101709.16;6243147;23;20007;-80
2022/05/19 03:48:15;;;;;;;3.27;2.50;;;;;;;18.67;72.73;101716.03;6245900;23;20000;-80
2022/05/19 03:50:44;;;;;;;2.47;2.27;;;;;;;18.65;72.65;101711.72;6245504;23;20004;-80
2022/05/19 03:53:09;;;;;;;2.50;2.30;;;;;;;18.66;72.50;101711.69;6244912;23;20012;-80
2022/05/19 03:55:35;;;;;;;2.60;2.40;;;;;;;18.67;73.06;101709.91;6245752;23;20456;-81
2022/05/19 03:58:06;;;;;;;3.83;2.97;;;;;;;18.63;73.40;101706.53;6245329;23;20005;-81
2022/05/19 04:00:33;;;;;;;3.92;2.97;;;;;;;18.59;73.27;101696.19;6244678;23;20087;-81
2022/05/19 04:02:59;;;;;;;4.85;3.30;;;;;;;18.62;73.39;101707.44;6245315;23;20019;-82
2022/05/19 04:05:26;;;;;;;4.03;2.90;;;;;;;18.61;72.82;101732.00;6244542;23;20040;-81
2022/05/19 04:07:52;;;;;;;3.17;2.78;;;;;;;18.61;73.11;101739.06;6247396;23;20134;-80
2022/05/19 04:10:18;;;;;;;3.60;2.63;;;;;;;18.61;72.68;101725.91;6247748;23;19996;-80
2022/05/19 04:12:43;;;;;;;3.07;2.40;;;;;;;18.61;72.85;101728.53;6246116;23;20083;-80
2022/05/19 04:15:09;;;;;;;2.60;2.30;;;;;;;18.62;72.77;101736.34;6247791;23;20027;-80
2022/05/19 04:17:34;;;;;;;2.47;2.28;;;;;;;18.61;72.84;101720.66;6247019;23;20004;-80
2022/05/19 04:20:01;;;;;;;4.03;2.30;;;;;;;18.63;72.47;101726.72;6246282;23;20011;-80
2022/05/19 04:22:27;;;;;;;3.40;2.55;;;;;;;18.61;72.58;101724.13;6247521;23;20012;-80
2022/05/19 04:24:52;;;;;;;2.90;2.60;;;;;;;18.62;72.50;101723.22;6247361;23;20000;-81
2022/05/19 04:27:18;;;;;;;2.60;2.40;;;;;;;18.63;72.55;101724.09;6246171;23;20342;-81
2022/05/19 04:29:43;;;;;;;2.90;2.60;;;;;;;18.64;72.49;101736.28;6247031;23;20059;-81
2022/05/19 04:32:08;;;;;;;2.67;2.43;;;;;;;18.63;72.60;101732.81;6247508;23;20371;-81
2022/05/19 04:34:33;;;;;;;2.77;2.43;;;;;;;18.65;72.37;101733.63;6246548;23;20000;-81
2022/05/19 04:36:59;;;;;;;3.47;2.20;;;;;;;18.64;72.69;101721.38;6247241;23;20487;-81
2022/05/19 04:39:24;;;;;;;2.20;2.00;;;;;;;18.66;72.61;101722.19;6246944;23;20063;-81
2022/05/19 04:41:49;;;;;;;3.37;2.40;;;;;;;18.67;72.55;101718.66;6245575;23;20000;-81
2022/05/19 04:44:18;;;;;;;5.00;3.30;;;;;;;18.67;72.95;101705.50;6247557;23;20000;-81
2022/05/19 04:46:43;;;;;;;7.40;4.68;;;;;;;18.65;75.61;101706.47;6247017;23;20031;-80
2022/05/19 04:49:08;;;;;;;6.17;4.00;;;;;;;18.64;73.94;101713.50;6246436;23;20008;-80
2022/05/19 04:51:33;;;;;;;6.70;3.40;;;;;;;18.66;73.43;101723.97;6247419;23;20016;-80
2022/05/19 04:53:59;;;;;;;3.73;2.93;;;;;;;18.66;73.35;101719.56;6246876;23;19996;-80
2022/05/19 04:56:24;;;;;;;5.40;3.70;;;;;;;18.68;76.23;101720.38;6246101;23;20016;-81
2022/05/19 04:58:49;;;;;;;12.50;6.77;;;;;;;18.63;77.50;101698.66;6246757;23;20050;-81
2022/05/19 05:01:17;;;;;;;9.27;5.30;;;;;;;18.64;74.79;101708.25;6247241;23;20000;-81
2022/05/19 05:03:43;;;;;;;5.50;3.85;;;;;;;18.67;74.14;101715.16;6245930;23;20028;-81
2022/05/19 05:06:08;;;;;;;4.93;3.67;;;;;;;18.68;74.09;101716.88;6247322;23;20020;-81
2022/05/19 05:08:33;;;;;;;3.70;3.00;;;;;;;18.70;74.16;101711.56;6246224;23;20005;-81
2022/05/19 05:10:58;;;;;;;3.00;2.53;;;;;;;18.71;75.74;101714.16;6246328;23;20054;-81
2022/05/19 05:13:23;;;;;;;3.63;2.50;;;;;;;18.74;74.21;101713.16;6247326;23;20040;-81
2022/05/19 05:15:49;;;;;;;2.47;2.27;;;;;;;18.75;73.76;101713.09;6245737;23;20321;-81
2022/05/19 05:18:14;;;;;;;2.40;2.20;;;;;;;18.77;73.60;101703.41;6246215;23;20035;-81
2022/05/19 05:20:42;;;;;;;2.80;2.50;;;;;;;18.78;75.00;101696.38;6246751;23;20011;-81
2022/05/19 05:23:08;;;;;;;4.15;3.20;;;;;;;18.75;74.12;101701.75;6245522;23;20424;-81
2022/05/19 05:25:33;;;;;;;2.85;2.53;;;;;;;18.76;74.14;101692.94;6246428;23;20008;-81
2022/05/19 05:27:59;;;;;;;3.23;2.73;;;;;;;18.74;75.89;101674.59;6246578;23;20086;-81
2022/05/19 05:30:25;;;;;;;5.13;3.57;;;;;;;18.72;76.83;101665.03;6246049;23;20007;-81
2022/05/19 05:32:51;;;;;;;5.85;3.70;;;;;;;18.71;76.53;101647.53;6246331;23;20007;-82
2022/05/19 05:35:17;;;;;;;7.95;5.13;;;;;;;18.64;76.05;101649.53;6246935;23;20008;-84
2022/05/19 05:37:43;;;;;;;8.02;5.30;;;;;;;18.57;77.98;101642.78;6245586;23;20008;-85
2022/05/19 05:40:11;;;;;;;6.30;3.80;;;;;;;18.59;77.05;101641.81;6239496;22;20078;-85
2022/05/19 05:42:37;;;;;;;5.25;3.40;;;;;;;18.52;76.29;101622.78;6219670;23;20094;-84
2022/05/19 05:45:12;;;;;;;3.85;2.90;;;;;;;18.56;77.50;101617.41;6244928;23;20012;-84
2022/05/19 05:47:37;;;;;;;13.07;7.22;;;;;;;18.43;80.74;101585.47;6246313;23;20522;-85
2022/05/19 05:50:10;;;;;;;9.00;5.30;;;;;;;18.37;79.60;101603.16;6246703;23;20032;-83
2022/05/19 05:52:50;;;;;;;12.57;7.43;;;;;;;18.33;78.40;101580.56;6246000;23;20004;-85
2022/05/19 05:55:21;;;;;;;8.15;5.10;;;;;;;18.31;77.62;101603.41;6246478;23;20004;-84
2022/05/19 05:57:47;;;;;;;7.13;4.70;;;;;;;18.34;77.33;101612.94;6245614;23;20008;-86
2022/05/19 06:00:13;;;;;;;5.30;3.70;;;;;;;18.33;77.02;101616.47;6246790;23;20187;-82
2022/05/19 06:02:39;;;;;;;3.08;2.78;;;;;;;18.36;76.91;101611.13;6245829;23;20008;-80
2022/05/19 06:05:12;;;;;;;3.70;3.08;;;;;;;18.36;77.48;101606.72;6245854;23;20004;-80
2022/05/19 06:07:38;;;;;;;2.90;2.70;;;;;;;18.37;76.72;101587.41;6246218;23;20091;-80
2022/05/19 06:10:04;;;;;;;8.18;4.20;;;;;;;18.34;79.94;101578.78;6246796;23;20035;-80
2022/05/19 06:12:29;;;;;;;6.23;3.90;;;;;;;18.36;76.95;101587.47;6245781;23;20019;-79
2022/05/19 06:14:56;;;;;;;6.90;4.10;;;;;;;18.35;76.86;101599.75;6247290;23;20553;-79
2022/05/19 06:17:24;;;;;;;5.75;3.83;;;;;;;18.39;77.39;101612.78;6246889;23;20000;-80
2022/05/19 06:19:50;;;;;;;5.25;3.50;;;;;;;18.47;76.35;101623.84;6243047;22;20084;-80
2022/05/19 06:29:36;;;;;;;5.45;4.07;;;;;;;18.68;76.60;101596.81;6184840;23;20019;-80
2022/05/19 06:32:11;;;;;;;5.53;3.80;;;;;;;18.68;76.25;101595.94;6211914;22;20020;-80
2022/05/19 06:34:36;;;;;;;4.22;3.30;;;;;;;18.76;76.26;101593.03;6244819;22;20314;-84
2022/05/19 06:37:05;;;;;;;5.63;3.83;;;;;;;18.79;76.79;101598.19;6246020;23;20039;-83
2022/05/19 06:39:30;;;;;;;4.60;3.35;;;;;;;18.81;75.87;101584.03;6246464;23;20011;-83
2022/05/19 06:42:14;;;;;;;6.90;4.10;;;;;;;18.90;76.27;101590.72;6244991;23;20688;-84
2022/05/19 06:44:41;;;;;;;4.57;3.50;;;;;;;18.96;75.97;101595.78;6245886;23;20006;-84
2022/05/19 06:47:13;;;;;;;;;;;;;;;19.01;75.83;101595.59;6245568;23;20004;-83
2022/05/19 06:49:48;;;;;;;4.28;3.15;;;;;;;19.07;76.21;101592.75;6246269;23;19915;-84
2022/05/19 06:52:17;;;;;;;5.05;3.70;;;;;;;19.10;76.44;101587.34;6246297;23;20004;-83
2022/05/19 06:54:46;;;;;;;6.20;3.90;;;;;;;19.19;77.68;101587.91;6244985;23;20011;-83
2022/05/19 06:57:12;;;;;;;7.70;4.35;;;;;;;19.21;76.81;101583.41;6246194;23;20004;-85
2022/05/19 06:59:42;;;;;;;4.13;3.35;;;;;;;19.22;77.67;101588.66;6245860;23;20083;-85
2022/05/19 07:02:09;;;;;;;5.22;3.60;;;;;;;19.25;76.39;101592.91;6243851;23;20015;-86
2022/05/19 07:04:50;;;;;;;6.10;4.15;;;;;;;19.28;77.32;101584.91;6245819;23;20011;-84
2022/05/19 07:07:16;;;;;;;5.60;3.50;;;;;;;19.35;76.67;101596.06;6245571;23;20075;-82
2022/05/19 07:09:56;;;;;;;3.70;3.10;;;;;;;19.38;75.96;101591.50;6244364;23;20463;-83
2022/05/19 07:12:22;;;;;;;7.72;4.68;;;;;;;19.42;75.61;101582.56;6245709;23;20008;-83
2022/05/19 07:14:50;;;;;;;;;;;;;;;19.43;77.13;101571.09;6245368;23;20421;-83
2022/05/19 07:17:15;;;;;;;13.00;6.78;;;;;;;19.46;76.82;101572.78;6244687;23;20332;-83
2022/05/19 07:22:25;;;;;;;8.93;5.72;;;;;;;19.49;75.58;101554.19;6244814;23;20515;-83
2022/05/19 07:24:51;;;;;;;7.73;5.20;;;;;;;19.54;75.44;101564.53;6245385;23;20004;-83
2022/05/19 07:27:19;;;;;;;7.57;5.10;;;;;;;19.60;77.13;101567.78;6245736;23;20000;-83
2022/05/19 07:29:44;;;;;;;9.45;6.00;;;;;;;19.62;74.80;101561.59;6244488;23;20043;-82
2022/05/19 07:32:09;;;;;;;7.90;5.03;;;;;;;19.68;75.75;101561.34;6245550;23;20322;-83
2022/05/19 07:34:40;;;;;;;6.70;4.20;;;;;;;19.82;75.37;101560.75;6245483;23;20445;-83
2022/05/19 07:37:06;;;;;;;8.00;5.40;;;;;;;19.92;74.82;101556.84;6244986;23;20083;-83
2022/05/19 07:39:31;;;;;;;6.30;4.40;;;;;;;20.01;74.41;101566.13;6245620;23;20051;-83
2022/05/19 07:41:57;;;;;;;4.30;3.80;;;;;;;20.14;74.69;101571.69;6245033;23;20016;-83
2022/05/19 07:44:27;;;;;;;6.57;4.30;;;;;;;20.30;73.90;101585.03;6244787;23;20448;-82
2022/05/19 07:46:54;;;;;;;9.90;6.15;;;;;;;20.48;73.40;101586.88;6244737;23;20433;-83
2022/05/19 07:49:19;;;;;;;10.10;5.82;;;;;;;20.63;74.41;101585.31;6244960;23;20016;-82
2022/05/19 07:51:45;;;;;;;11.25;6.47;;;;;;;20.79;73.39;101588.13;6244520;23;20083;-83
2022/05/19 07:54:14;;;;;;;8.60;5.38;;;;;;;20.96;73.74;101594.38;6245729;23;20054;-82
2022/05/19 07:56:41;;;;;;;14.32;8.27;;;;;;;21.05;72.50;101586.06;6245463;23;20004;-83
2022/05/19 07:59:08;;;;;;;13.57;7.97;;;;;;;21.16;73.04;101597.88;6244891;23;20045;-83
2022/05/19 08:01:33;;;;;;;12.65;7.53;;;;;;;21.28;72.58;101594.63;6245767;23;20011;-82
2022/05/19 08:04:07;;;;;;;12.38;6.70;;;;;;;21.49;72.28;101586.59;6244205;22;20012;-82
2022/05/19 08:06:40;;;;;;;9.48;5.70;;;;;;;21.80;72.42;101590.34;6244345;23;20376;-82
2022/05/19 08:11:52;;;;;;;12.50;7.70;;;;;;;22.17;69.97;101583.19;6244177;23;20015;-83
2022/05/19 08:17:07;;;;;;;9.80;6.38;;;;;;;22.52;69.38;101573.38;6245458;23;20014;-82
2022/05/19 08:19:32;;;;;;;11.52;7.13;;;;;;;22.72;67.23;101576.72;6244725;23;20499;-83
2022/05/19 08:21:58;;;;;;;10.43;6.57;;;;;;;22.82;67.13;101577.91;6245053;23;20008;-83
2022/05/19 08:24:25;;;;;;;7.37;5.30;;;;;;;22.97;68.45;101581.50;6245643;23;20012;-83
2022/05/19 08:26:51;;;;;;;7.32;5.03;;;;;;;23.17;65.92;101570.72;6244302;23;20078;-83
2022/05/19 08:29:18;;;;;;;7.63;4.80;;;;;;;23.31;66.55;101577.88;6245537;23;20004;-82
2022/05/19 08:31:45;;;;;;;7.07;4.70;;;;;;;23.47;66.15;101575.22;6245314;23;20015;-83
2022/05/19 08:34:10;;;;;;;7.68;4.82;;;;;;;23.65;65.15;101578.56;6244636;23;20059;-82
2022/05/19 08:36:36;;;;;;;7.00;4.97;;;;;;;23.74;62.76;101581.53;6246039;23;20093;-82
2022/05/19 08:39:01;;;;;;;9.03;5.73;;;;;;;23.80;64.24;101569.72;6245713;23;20004;-81
2022/05/19 08:41:50;;;;;;;9.73;5.63;;;;;;;23.87;62.61;101579.00;6241450;23;20436;-81
2022/05/19 08:44:21;;;;;;;9.20;6.18;;;;;;;23.95;63.40;101573.28;6245060;23;20000;-82
2022/05/19 08:46:52;;;;;;;7.53;5.10;;;;;;;24.06;62.37;101570.81;6243216;23;20034;-82
2022/05/19 08:49:41;;;;;;;9.18;5.30;;;;;;;24.23;61.27;101570.72;6245087;23;20410;-82
2022/05/19 08:52:14;;;;;;;10.30;6.00;;;;;;;24.26;60.73;101565.25;6245262;23;20424;-82
2022/05/19 08:54:47;;;;;;;8.93;5.05;;;;;;;24.27;58.61;101565.13;6244452;23;20425;-82
2022/05/19 08:57:12;;;;;;;7.50;5.28;;;;;;;24.31;57.22;101556.06;6246870;23;20005;-83
2022/05/19 08:59:58;;;;;;;7.10;4.20;;;;;;;24.38;60.18;101551.22;6246108;23;20039;-81
2022/05/19 09:02:34;;;;;;;5.47;3.80;;;;;;;24.55;59.69;101552.81;6245775;23;20332;-82
2022/05/19 09:05:15;;;;;;;5.80;3.85;;;;;;;24.73;58.40;101544.63;6246791;23;20375;-83
2022/05/19 09:07:58;;;;;;;5.60;4.10;;;;;;;24.88;58.98;101553.44;6244326;23;20000;-83
2022/05/19 09:11:06;;;;;;;4.53;3.53;;;;;;;24.92;59.53;101550.47;6247227;23;20421;-83
2022/05/19 09:13:45;;;;;;;7.43;4.50;;;;;;;25.00;57.15;101539.34;6247129;23;20028;-83
2022/05/19 09:16:25;;;;;;;5.18;4.18;;;;;;;25.06;58.07;101544.25;6246079;23;20055;-83
2022/05/19 09:18:59;;;;;;;5.55;3.80;;;;;;;25.20;57.39;101543.34;6246808;23;20000;-83
2022/05/19 09:21:26;;;;;;;6.28;4.40;;;;;;;25.38;57.47;101546.56;6246759;23;20011;-83
2022/05/19 09:23:51;;;;;;;7.78;4.60;;;;;;;25.56;54.75;101536.53;6245769;23;20011;-83
2022/05/19 09:26:45;;;;;;;6.40;4.33;;;;;;;25.67;53.48;101541.09;6247230;23;19999;-83
2022/05/19 09:29:21;;;;;;;5.80;4.25;;;;;;;25.71;55.81;101537.28;6246493;23;20310;-83
2022/05/19 09:31:56;;;;;;;3.78;3.30;;;;;;;25.78;56.51;101532.41;6246845;23;20058;-82
2022/05/19 09:34:28;;;;;;;4.90;3.65;;;;;;;25.87;55.59;101531.75;6246989;23;20325;-83
2022/05/19 09:37:12;;;;;;;6.97;4.32;;;;;;;25.96;54.90;101540.91;6245319;23;20485;-83
2022/05/19 09:39:46;;;;;;;5.60;3.90;;;;;;;25.88;55.44;101548.59;6246671;23;20001;-82
2022/05/19 09:42:15;;;;;;;3.25;2.95;;;;;;;25.93;55.56;101549.09;6246946;23;20084;-82
2022/05/19 09:44:50;;;;;;;7.22;4.30;;;;;;;25.93;52.54;101543.78;6245176;23;20012;-83
2022/05/19 09:47:25;;;;;;;3.70;3.30;;;;;;;25.87;54.29;101547.72;6247051;23;20321;-83
2022/05/19 09:49:56;;;;;;;5.90;4.10;;;;;;;25.90;54.73;101536.00;6245502;23;20000;-82
2022/05/19 09:52:26;;;;;;;2.92;2.63;;;;;;;25.92;55.82;101541.25;6246902;23;20059;-83
2022/05/19 09:55:05;;;;;;;3.53;3.10;;;;;;;25.95;55.58;101541.88;6246352;23;20019;-82
2022/05/19 09:57:36;;;;;;;3.25;2.70;;;;;;;25.99;54.99;101538.03;6238509;23;20004;-82
2022/05/19 10:00:09;;;;;;;4.18;2.80;;;;;;;26.00;55.35;101525.59;6246567;23;20004;-82
2022/05/19 10:02:38;;;;;;;2.85;2.60;;;;;;;26.05;55.69;101524.31;6246290;23;20425;-80
2022/05/19 10:05:25;;;;;;;4.68;3.40;;;;;;;26.10;54.74;101515.19;6245599;23;20078;-82
2022/05/19 10:14:28;;;;;;;3.58;3.05;;;;;;;26.23;52.45;101483.22;6226838;22;20024;-82
2022/05/19 10:16:56;;;;;;;5.75;3.70;;;;;;;26.39;53.13;101473.19;6245859;23;20027;-83
2022/05/19 10:19:40;;;;;;;5.45;4.00;;;;;;;26.52;51.96;101462.50;6245929;23;20065;-82
2022/05/19 10:22:22;;;;;;;5.03;3.78;;;;;;;26.55;51.69;101459.63;6246172;23;20011;-82
2022/05/19 10:24:56;;;;;;;7.30;4.20;;;;;;;26.78;51.02;101467.75;6246292;23;20004;-83
2022/05/19 10:33:10;;;;;;;5.78;3.72;;;;;;;27.29;49.03;101471.91;6245392;23;20490;-82
2022/05/19 10:35:47;;;;;;;4.03;3.45;;;;;;;27.28;49.77;101459.53;6246028;23;20004;-83
2022/05/19 10:38:52;;;;;;;4.15;3.20;;;;;;;27.34;48.96;101460.91;6245108;23;20001;-82
2022/05/19 10:41:53;;;;;;;5.57;3.50;;;;;;;27.43;49.16;101462.84;6242803;23;20012;-82
2022/05/19 10:44:46;;;;;;;4.68;3.63;;;;;;;27.50;48.87;101477.41;6245449;23;20065;-83
2022/05/19 10:48:02;;;;;;;4.53;3.30;;;;;;;27.49;49.17;101482.88;6240669;22;20078;-83
2022/05/19 10:50:36;;;;;;;4.22;3.10;;;;;;;27.46;48.15;101473.31;6237217;23;20018;-83
2022/05/19 10:53:31;;;;;;;4.40;2.85;;;;;;;27.41;48.51;101467.44;6244398;23;20009;-82
2022/05/19 10:56:07;;;;;;;2.97;2.70;;;;;;;27.41;48.14;101462.09;6245696;23;20371;-84
2022/05/19 10:58:42;;;;;;;3.53;2.95;;;;;;;27.46;47.89;101467.09;6246002;23;20079;-83
2022/05/19 11:01:22;;;;;;;3.75;2.90;;;;;;;27.43;45.66;101468.16;6244573;23;20008;-83
2022/05/19 11:04:02;;;;;;;6.32;3.40;;;;;;;27.36;45.27;101464.28;6245745;23;20012;-83
2022/05/19 11:06:36;;;;;;;3.47;2.83;;;;;;;27.32;48.25;101465.47;6245508;23;20316;-85
2022/05/19 11:09:29;;;;;;;3.40;2.70;;;;;;;27.38;47.94;101468.53;6244698;23;20015;-83
2022/05/19 11:12:01;;;;;;;2.65;2.45;;;;;;;27.40;48.69;101460.41;6245736;23;20008;-83
2022/05/19 11:14:57;;;;;;;2.50;2.30;;;;;;;27.34;47.86;101456.41;6245065;23;20104;-82
2022/05/19 11:17:30;;;;;;;2.72;2.47;;;;;;;27.22;46.15;101455.53;6245735;23;20410;-82
2022/05/19 11:20:25;;;;;;;2.92;2.60;;;;;;;27.02;47.69;101450.88;6245301;23;20460;-83
2022/05/19 11:22:56;;;;;;;2.90;2.50;;;;;;;26.90;48.33;101455.31;6235779;23;20335;-83
2022/05/19 11:28:32;;;;;;;2.35;2.15;;;;;;;26.69;49.23;101469.22;6245220;23;20093;-83
2022/05/19 11:31:04;;;;;;;2.20;2.10;;;;;;;26.57;50.16;101483.44;6245827;23;20004;-84
2022/05/19 11:33:36;;;;;;;2.00;1.90;;;;;;;26.47;50.71;101488.59;6246081;23;20324;-84
2022/05/19 11:36:12;;;;;;;2.00;1.90;;;;;;;26.38;50.93;101497.25;6244772;23;20066;-83
2022/05/19 11:38:41;;;;;;;;;;;;;;;26.28;50.74;101494.41;6246259;23;20032;-85
2022/05/19 11:41:29;;;;;;;2.00;1.90;;;;;;;26.13;51.41;101489.22;6244803;23;19907;-83
2022/05/19 11:44:20;;;;;;;2.00;1.77;;;;;;;26.03;51.84;101539.50;6244058;23;20050;-83
2022/05/19 11:46:52;;;;;;;6.05;2.60;;;;;;;25.70;52.15;101809.38;6244940;23;20020;-82
2022/05/19 11:55:36;;;;;;;9.02;2.50;;;;;;;20.95;69.02;101736.03;6246111;23;20046;-87
2022/05/19 11:58:09;;;;;;;7.20;2.00;;;;;;;19.99;71.41;101728.66;6246696;23;20075;-94
2022/05/19 12:00:49;;;;;;;4.57;1.90;;;;;;;19.42;74.34;101710.69;6248359;23;20007;-95
2022/05/19 12:03:28;;;;;;;3.00;1.40;;;;;;;18.92;75.55;101698.50;6247964;23;20008;-94
2022/05/19 12:06:00;;;;;;;2.08;1.35;;;;;;;18.62;78.66;101707.44;6246170;23;20000;-92
2022/05/19 12:08:34;;;;;;;3.75;1.35;;;;;;;18.42;78.24;101694.16;6246413;23;20075;-94
2022/05/19 12:11:14;;;;;;;2.83;1.00;;;;;;;18.30;78.88;101698.91;6241108;22;20352;-93
2022/05/19 12:13:47;;;;;;;2.90;1.10;;;;;;;18.13;80.57;101703.84;6246409;23;20417;-90
2022/05/19 12:19:54;;;;;;;1.70;1.40;;;;;;;18.03;80.57;101717.31;6246350;23;20095;-89
2022/05/19 12:22:43;;;;;;;1.40;1.17;;;;;;;18.04;78.29;101708.50;6246595;23;20004;-92